createdAt,value
2019-05-23T07:41:44.010Z,95948.88
2019-05-23T08:01:44.813Z,95791.11
2019-05-23T08:12:02.895Z,95928.05
2019-05-23T08:31:58.663Z,95912.30
2019-05-23T08:42:00.982Z,95915.37
2019-05-23T08:51:52.856Z,95915.89
2019-05-23T09:02:18.496Z,95775.53
2019-05-23T09:12:00.882Z,95910.85
2019-05-23T09:13:05.441Z,95913.39
2019-05-23T09:14:09.033Z,95913.94
2019-05-23T09:15:13.367Z,95916.59
2019-05-23T09:16:16.952Z,95914.15
2019-05-23T09:17:21.274Z,95909.16
2019-05-23T09:18:25.020Z,95905.56
2019-05-23T09:19:29.122Z,95906.78
2019-05-23T09:20:32.815Z,95904.75
2019-05-23T09:21:37.455Z,95907.03
2019-05-23T09:22:41.271Z,95906.23
2019-05-23T09:23:45.478Z,95911.30
2019-05-23T09:24:48.915Z,95907.68
2019-05-23T09:25:53.514Z,95911.06
2019-05-23T09:26:57.017Z,95910.33
2019-05-23T09:28:01.263Z,95908.61
2019-05-23T09:29:06.230Z,95908.56
2019-05-23T09:30:12.697Z,95907.58
2019-05-23T09:31:16.375Z,95901.10
2019-05-23T09:32:20.709Z,95903.13
2019-05-23T09:33:24.364Z,95906.28
2019-05-23T09:34:28.554Z,95904.12
2019-05-23T09:35:32.272Z,95903.47
2019-05-23T09:36:36.743Z,95902.47
2019-05-23T09:37:40.766Z,95899.48
2019-05-23T09:38:44.897Z,95899.97
2019-05-23T09:39:49.865Z,95898.48
2019-05-23T09:40:54.102Z,95892.59
2019-05-23T09:41:57.555Z,95894.97
2019-05-23T09:43:01.644Z,95892.84
2019-05-23T09:44:05.352Z,95893.45
2019-05-23T09:45:09.517Z,95890.70
2019-05-23T09:46:13.031Z,95893.98
2019-05-23T09:47:17.335Z,95894.79
2019-05-23T09:48:21.372Z,95899.11
2019-05-23T09:49:25.674Z,95893.46
2019-05-23T09:50:29.468Z,95892.33
2019-05-23T09:51:33.811Z,95892.47
2019-05-23T09:52:37.252Z,95890.32
2019-05-23T09:53:47.008Z,95889.66
2019-05-23T09:54:46.482Z,95893.41
2019-05-23T09:55:50.563Z,95889.62
2019-05-23T09:56:54.426Z,95894.88
2019-05-23T09:57:58.497Z,95894.33
2019-05-23T09:59:02.030Z,95885.68
2019-05-23T10:00:11.041Z,95884.00
2019-05-23T10:01:16.675Z,95889.28
2019-05-23T10:02:20.765Z,95884.83
2019-05-23T10:03:24.723Z,95892.64
2019-05-23T10:04:28.970Z,95886.26
2019-05-23T10:05:42.954Z,95885.36
2019-05-23T10:06:38.234Z,95893.01
2019-05-23T10:07:41.744Z,95888.72
2019-05-23T10:08:45.864Z,95887.11
2019-05-23T10:09:49.306Z,95881.40
2019-05-23T10:10:54.013Z,95883.89
2019-05-23T10:11:57.606Z,95879.38
2019-05-23T10:13:01.713Z,95875.94
2019-05-23T10:14:07.449Z,95880.95
2019-05-23T10:15:12.995Z,95876.19
2019-05-23T10:16:16.573Z,95872.02
2019-05-23T10:17:20.740Z,95876.87
2019-05-23T10:18:24.250Z,95873.75
2019-05-23T10:19:28.378Z,95869.52
2019-05-23T10:20:34.860Z,95874.34
2019-05-23T10:21:38.886Z,95874.17
2019-05-23T10:22:42.399Z,95872.23
2019-05-23T10:23:46.428Z,95874.29
2019-05-23T10:24:49.891Z,95869.18
2019-05-23T10:25:54.062Z,95871.27
2019-05-23T10:26:57.651Z,95868.73
2019-05-23T10:28:01.804Z,95869.77
2019-05-23T10:29:05.600Z,95875.80
2019-05-23T10:30:11.140Z,95872.67
2019-05-23T10:31:15.080Z,95869.69
2019-05-23T10:32:19.243Z,95870.03
2019-05-23T10:33:22.876Z,95873.95
2019-05-23T10:34:27.088Z,95874.03
2019-05-23T10:35:31.459Z,95866.22
2019-05-23T10:36:35.491Z,95859.24
2019-05-23T10:37:39.262Z,95859.92
2019-05-23T10:38:43.529Z,95857.84
2019-05-23T10:39:50.034Z,95853.02
2019-05-23T10:40:54.133Z,95858.10
2019-05-23T10:41:57.748Z,95858.78
2019-05-23T10:43:01.867Z,95859.81
2019-05-23T10:44:05.944Z,95856.66
2019-05-23T10:45:10.246Z,95854.28
2019-05-23T10:46:13.815Z,95855.91
2019-05-23T10:47:18.079Z,95849.49
2019-05-23T10:48:22.465Z,95853.70
2019-05-23T10:49:26.582Z,95853.63
2019-05-23T10:50:43.755Z,95857.22
2019-05-23T10:51:35.822Z,95862.80
2019-05-23T10:52:39.400Z,95859.02
2019-05-23T10:53:43.489Z,95848.73
2019-05-23T10:54:46.929Z,95847.64
2019-05-23T10:55:51.013Z,95846.61
2019-05-23T10:56:54.512Z,95846.55
2019-05-23T10:57:58.614Z,95844.64
2019-05-23T10:59:02.158Z,95844.86
2019-05-23T11:00:10.458Z,95844.05
2019-05-23T11:01:14.361Z,95839.31
2019-05-23T11:02:18.627Z,95838.42
2019-05-23T11:03:23.252Z,95839.83
2019-05-23T11:04:27.198Z,95842.61
2019-05-23T11:05:30.878Z,95843.34
2019-05-23T11:06:35.137Z,95846.97
2019-05-23T11:07:40.360Z,95839.31
2019-05-23T11:08:45.107Z,95836.17
2019-05-23T11:09:48.949Z,95837.41
2019-05-23T11:10:53.113Z,95837.23
2019-05-23T11:11:56.916Z,95841.52
2019-05-23T11:13:00.935Z,95846.57
2019-05-23T11:14:08.415Z,95844.16
2019-05-23T11:15:12.464Z,95833.03
2019-05-23T11:16:16.183Z,95829.68
2019-05-23T11:17:20.903Z,95828.62
2019-05-23T11:18:25.352Z,95835.46
2019-05-23T11:19:29.960Z,95832.64
2019-05-23T11:20:36.104Z,95835.38
2019-05-23T11:21:39.807Z,95825.66
2019-05-23T11:22:43.390Z,95837.80
2019-05-23T11:23:48.552Z,95833.11
2019-05-23T11:24:52.317Z,95825.81
2019-05-23T11:26:00.671Z,95827.48
2019-05-23T11:27:01.830Z,95824.46
2019-05-23T11:28:05.952Z,95828.10
2019-05-23T11:29:09.521Z,95817.22
2019-05-23T11:30:23.884Z,95817.55
2019-05-23T11:31:27.630Z,95825.30
2019-05-23T11:32:32.145Z,95823.86
2019-05-23T11:33:35.891Z,95826.31
2019-05-23T11:34:39.995Z,95820.91
2019-05-23T11:35:44.767Z,95820.94
2019-05-23T11:36:48.925Z,95821.91
2019-05-23T11:37:52.681Z,95819.63
2019-05-23T11:38:56.777Z,95814.25
2019-05-23T11:40:00.464Z,95812.91
2019-05-23T11:41:04.657Z,95821.54
2019-05-23T11:42:08.174Z,95813.25
2019-05-23T11:43:12.284Z,95814.27
2019-05-23T11:44:16.135Z,95815.89
2019-05-23T11:45:20.311Z,95811.34
2019-05-23T11:46:28.615Z,95807.40
2019-05-23T11:47:32.821Z,95809.25
2019-05-23T11:48:36.391Z,95802.03
2019-05-23T11:49:41.476Z,95801.52
2019-05-23T11:50:45.816Z,95799.12
2019-05-23T11:51:50.008Z,95797.83
2019-05-23T11:52:55.999Z,95798.86
2019-05-23T11:54:07.506Z,95791.83
2019-05-23T11:55:07.615Z,95794.60
2019-05-23T11:56:11.892Z,95794.94
2019-05-23T11:57:15.409Z,95786.13
2019-05-23T11:58:19.645Z,95790.26
2019-05-23T11:59:23.425Z,95793.02
2019-05-23T12:00:39.279Z,95787.19
2019-05-23T12:01:44.560Z,95787.08
2019-05-23T12:02:49.982Z,95787.48
2019-05-23T12:03:57.628Z,95780.98
2019-05-23T12:05:02.881Z,95781.10
2019-05-23T12:06:07.036Z,95783.97
2019-05-23T12:07:12.188Z,95782.42
2019-05-23T12:08:16.550Z,95775.49
2019-05-23T12:09:21.350Z,95778.14
2019-05-23T12:10:25.557Z,95775.96
2019-05-23T12:11:29.328Z,95777.75
2019-05-23T12:12:33.361Z,95769.05
2019-05-23T12:13:36.887Z,95772.88
2019-05-23T12:14:41.774Z,95769.27
2019-05-23T12:15:48.791Z,95766.69
2019-05-23T12:16:53.405Z,95770.52
2019-05-23T12:17:57.055Z,95771.95
2019-05-23T12:19:01.195Z,95767.09
2019-05-23T12:20:07.055Z,95771.15
2019-05-23T12:21:11.316Z,95773.64
2019-05-23T12:22:15.808Z,95779.19
2019-05-23T12:23:20.124Z,95778.71
2019-05-23T12:24:24.044Z,95774.51
2019-05-23T12:25:28.787Z,95778.60
2019-05-23T12:26:32.448Z,95779.26
2019-05-23T12:27:36.895Z,95783.51
2019-05-23T12:28:40.654Z,95773.25
2019-05-23T12:29:45.417Z,95775.95
2019-05-23T12:30:49.300Z,95762.12
2019-05-23T12:31:53.926Z,95765.69
2019-05-23T12:32:57.578Z,95758.25
2019-05-23T12:34:02.025Z,95762.28
2019-05-23T12:35:10.972Z,95763.75
2019-05-23T12:36:14.992Z,95760.48
2019-05-23T12:37:20.913Z,95754.37
2019-05-23T12:38:25.749Z,95742.17
2019-05-23T12:39:29.862Z,95749.00
2019-05-23T12:40:34.499Z,95754.34
2019-05-23T12:41:38.732Z,95751.08
2019-05-23T12:42:42.898Z,95753.30
2019-05-23T12:43:47.000Z,95754.95
2019-05-23T12:44:51.355Z,95754.03
2019-05-23T12:45:55.168Z,95751.96
2019-05-23T12:47:00.374Z,95750.43
2019-05-23T12:48:08.459Z,95752.02
2019-05-23T12:49:13.601Z,95749.91
2019-05-23T12:50:21.801Z,95749.09
2019-05-23T12:51:27.039Z,95747.23
2019-05-23T12:52:32.386Z,95748.27
2019-05-23T12:53:36.678Z,95742.86
2019-05-23T12:54:40.792Z,95739.64
2019-05-23T12:55:44.517Z,95746.03
2019-05-23T12:56:49.415Z,95746.94
2019-05-23T12:57:52.935Z,95746.03
2019-05-23T12:58:57.891Z,95749.61
2019-05-23T13:00:01.467Z,95738.73
2019-05-23T13:01:07.649Z,95750.88
2019-05-23T13:02:12.234Z,95752.76
2019-05-23T13:03:16.718Z,95740.73
2019-05-23T13:04:20.389Z,95746.23
2019-05-23T13:05:24.589Z,95740.08
2019-05-23T13:06:28.559Z,95738.08
2019-05-23T13:07:36.274Z,95733.96
2019-05-23T13:08:38.124Z,95741.55
2019-05-23T13:09:42.151Z,95740.82
2019-05-23T13:10:45.764Z,95737.69
2019-05-23T13:11:50.266Z,95734.41
2019-05-23T13:12:53.933Z,95741.54
2019-05-23T13:13:58.091Z,95739.81
2019-05-23T13:15:01.708Z,95735.91
2019-05-23T13:16:05.887Z,95734.51
2019-05-23T13:17:09.400Z,95738.36
2019-05-23T13:18:13.557Z,95738.20
2019-05-23T13:19:17.754Z,95745.08
2019-05-23T13:20:22.743Z,95739.85
2019-05-23T13:21:26.264Z,95742.97
2019-05-23T13:22:30.517Z,95748.56
2019-05-23T13:23:34.785Z,95734.73
2019-05-23T13:24:51.906Z,95735.72
2019-05-23T13:25:44.372Z,95736.14
2019-05-23T13:26:48.573Z,95735.75
2019-05-23T13:27:52.014Z,95728.02
2019-05-23T13:28:56.063Z,95738.70
2019-05-23T13:29:59.636Z,95732.98
2019-05-23T13:31:03.896Z,95738.03
2019-05-23T13:32:08.283Z,95732.95
2019-05-23T13:33:12.610Z,95731.95
2019-05-23T13:34:16.177Z,95731.63
2019-05-23T13:35:20.603Z,95735.92
2019-05-23T13:36:24.102Z,95731.54
2019-05-23T13:37:27.891Z,95733.78
2019-05-23T13:38:31.457Z,95724.73
2019-05-23T13:39:35.558Z,95717.45
2019-05-23T13:40:39.174Z,95718.73
2019-05-23T13:41:43.259Z,95713.52
2019-05-23T13:42:46.951Z,95719.67
2019-05-23T13:43:51.443Z,95718.83
2019-05-23T13:44:54.996Z,95714.20
2019-05-23T13:45:59.464Z,95713.42
2019-05-23T13:47:03.218Z,95718.52
2019-05-23T13:48:07.574Z,95716.92
2019-05-23T13:49:11.335Z,95709.17
2019-05-23T13:50:16.470Z,95710.29
2019-05-23T13:51:20.035Z,95701.81
2019-05-23T13:52:24.236Z,95697.16
2019-05-23T13:53:27.850Z,95700.71
2019-05-23T13:54:35.972Z,95708.58
2019-05-23T13:55:38.527Z,95703.63
2019-05-23T13:56:47.382Z,95698.62
2019-05-23T13:57:47.890Z,95703.08
2019-05-23T13:58:52.007Z,95701.84
2019-05-23T13:59:55.429Z,95695.64
2019-05-23T14:01:00.209Z,95695.64
2019-05-23T14:02:05.569Z,95697.97
2019-05-23T14:03:10.283Z,95701.75
2019-05-23T14:04:13.905Z,95698.05
2019-05-23T14:05:19.668Z,95698.05
2019-05-23T14:06:23.422Z,95706.75
2019-05-23T14:07:28.502Z,95697.33
2019-05-23T14:08:32.217Z,95687.47
2019-05-23T14:09:36.679Z,95698.40
2019-05-23T14:10:40.290Z,95698.40
2019-05-23T14:11:44.304Z,95700.17
2019-05-23T14:12:47.870Z,95700.17
2019-05-23T14:13:59.728Z,95685.41
2019-05-23T14:14:57.227Z,95688.10
2019-05-23T14:16:01.592Z,95692.27
2019-05-23T14:17:18.773Z,95692.27
2019-05-23T14:18:23.983Z,95690.13
2019-05-23T14:19:29.660Z,95681.49
2019-05-23T14:20:33.186Z,95679.26
2019-05-23T14:21:37.399Z,95681.38
2019-05-23T14:22:42.597Z,95684.68
2019-05-23T14:23:46.680Z,95677.52
2019-05-23T14:24:50.538Z,95679.08
2019-05-23T14:25:55.500Z,95677.73
2019-05-23T14:27:03.490Z,95684.98
2019-05-23T14:28:08.522Z,95686.59
2019-05-23T14:29:12.692Z,95684.73
2019-05-23T14:30:21.634Z,95687.91
2019-05-23T14:31:25.678Z,95679.95
2019-05-23T14:32:30.769Z,95682.41
2019-05-23T14:33:35.892Z,95680.44
2019-05-23T14:34:39.991Z,95681.06
2019-05-23T14:35:45.175Z,95680.08
2019-05-23T14:36:52.948Z,95680.68
2019-05-23T14:38:00.557Z,95681.05
2019-05-23T14:39:07.415Z,95681.44
2019-05-23T14:40:11.678Z,95672.31
2019-05-23T14:41:15.983Z,95683.89
2019-05-23T14:42:30.317Z,95673.78
2019-05-23T14:43:34.145Z,95672.08
2019-05-23T14:44:38.620Z,95668.12
2019-05-23T14:45:46.244Z,95671.59
2019-05-23T14:47:07.566Z,95668.88
2019-05-23T14:48:28.702Z,95670.46
2019-05-23T14:49:33.876Z,95677.82
2019-05-23T14:50:50.931Z,95666.27
2019-05-23T14:51:56.314Z,95667.10
2019-05-23T14:53:01.849Z,95669.48
2019-05-23T14:54:16.212Z,95669.35
2019-05-23T14:55:20.552Z,95669.85
2019-05-23T14:56:25.700Z,95666.28
2019-05-23T14:57:30.276Z,95666.77
2019-05-23T14:58:33.854Z,95659.03
2019-05-23T14:59:38.546Z,95653.20
2019-05-23T15:00:43.105Z,95659.55
2019-05-23T15:01:48.905Z,95657.17
2019-05-23T15:02:52.514Z,95659.35
2019-05-23T15:03:56.700Z,95661.09
2019-05-23T15:05:00.441Z,95660.91
2019-05-23T15:06:04.783Z,95657.92
2019-05-23T15:07:08.416Z,95664.54
2019-05-23T15:08:13.536Z,95659.64
2019-05-23T15:09:20.932Z,95661.47
2019-05-23T15:10:23.079Z,95656.50
2019-05-23T15:11:26.838Z,95653.23
2019-05-23T15:12:30.933Z,95649.64
2019-05-23T15:13:34.375Z,95659.03
2019-05-23T15:14:38.479Z,95658.77
2019-05-23T15:15:41.969Z,95655.69
2019-05-23T15:16:46.080Z,95652.38
2019-05-23T15:17:49.848Z,95656.77
2019-05-23T15:18:54.572Z,95653.98
2019-05-23T15:19:58.399Z,95652.12
2019-05-23T15:21:02.980Z,95650.50
2019-05-23T15:22:06.849Z,95652.34
2019-05-23T15:23:11.040Z,95649.85
2019-05-23T15:24:14.494Z,95651.83
2019-05-23T15:25:20.240Z,95659.55
2019-05-23T15:26:24.284Z,95653.62
2019-05-23T15:27:32.820Z,95655.99
2019-05-23T15:28:34.533Z,95653.89
2019-05-23T15:29:38.804Z,95651.52
2019-05-23T15:30:42.495Z,95652.32
2019-05-23T15:32:00.901Z,95643.34
2019-05-23T15:32:51.864Z,95648.07
2019-05-23T15:33:56.036Z,95646.56
2019-05-23T15:34:59.946Z,95643.53
2019-05-23T15:36:04.569Z,95641.77
2019-05-23T15:37:08.310Z,95647.56
2019-05-23T15:38:12.449Z,95648.58
2019-05-23T15:39:17.415Z,95644.69
2019-05-23T15:40:22.432Z,95642.80
2019-05-23T15:41:26.159Z,95644.95
2019-05-23T15:42:31.012Z,95648.08
2019-05-23T15:43:35.045Z,95637.36
2019-05-23T15:44:39.259Z,95632.09
2019-05-23T15:45:43.390Z,95634.17
2019-05-23T15:46:47.628Z,95646.86
2019-05-23T15:47:51.854Z,95643.61
2019-05-23T15:48:55.964Z,95636.25
2019-05-23T15:50:05.537Z,95645.09
2019-05-23T15:51:07.078Z,95637.54
2019-05-23T15:52:12.249Z,95637.54
2019-05-23T15:53:31.931Z,95641.78
2019-05-23T15:54:39.830Z,95637.45
2019-05-23T15:55:44.966Z,95637.45
2019-05-23T15:56:55.879Z,95636.20
2019-05-23T15:58:04.471Z,95638.34
2019-05-23T15:59:13.796Z,95636.52
2019-05-23T16:00:35.063Z,95629.86
2019-05-23T16:01:56.062Z,95627.30
2019-05-23T16:03:01.129Z,95632.98
2019-05-23T16:04:15.956Z,95635.65
2019-05-23T16:05:19.646Z,95634.44
2019-05-23T16:06:27.589Z,95633.59
2019-05-23T16:07:31.960Z,95625.66
2019-05-23T16:08:36.184Z,95630.77
2019-05-23T16:09:39.783Z,95625.13
2019-05-23T16:10:43.905Z,95633.28
2019-05-23T16:11:48.045Z,95627.22
2019-05-23T16:12:52.141Z,95626.34
2019-05-23T16:13:55.718Z,95623.81
2019-05-23T16:14:59.829Z,95626.95
2019-05-23T16:16:03.791Z,95627.55
2019-05-23T16:17:09.919Z,95621.91
2019-05-23T16:18:13.708Z,95622.82
2019-05-23T16:19:17.943Z,95627.88
2019-05-23T16:20:21.970Z,95625.50
2019-05-23T16:21:26.788Z,95619.36
2019-05-23T16:22:31.188Z,95620.27
2019-05-23T16:23:35.934Z,95622.94
2019-05-23T16:24:40.129Z,95621.30
2019-05-23T16:25:44.971Z,95624.56
2019-05-23T16:26:48.976Z,95625.58
2019-05-23T16:27:54.235Z,95622.59
2019-05-23T16:28:58.094Z,95623.92
2019-05-23T16:30:02.351Z,95620.78
2019-05-23T16:31:07.136Z,95616.30
2019-05-23T16:32:11.676Z,95619.09
2019-05-23T16:33:15.734Z,95622.55
2019-05-23T16:34:20.262Z,95624.93
2019-05-23T16:35:24.828Z,95616.38
2019-05-23T16:36:29.518Z,95617.41
2019-05-23T16:37:33.203Z,95576.59
2019-05-23T16:38:37.496Z,95627.17
2019-05-23T16:39:47.242Z,95627.33
2019-05-23T16:40:47.822Z,95620.59
2019-05-23T16:41:51.699Z,95629.05
2019-05-23T16:42:56.366Z,95627.27
2019-05-23T16:44:00.076Z,95618.20
2019-05-23T16:45:05.994Z,95628.39
2019-05-23T16:46:09.790Z,95623.49
2019-05-23T16:47:14.418Z,95625.30
2019-05-23T16:48:18.302Z,95629.45
2019-05-23T16:49:22.591Z,95627.78
2019-05-23T16:50:26.303Z,95624.03
2019-05-23T16:51:30.887Z,95624.89
2019-05-23T16:52:35.424Z,95619.27
2019-05-23T16:53:39.781Z,95622.63
2019-05-23T16:54:45.493Z,95625.03
2019-05-23T16:56:07.072Z,95622.63
2019-05-23T16:57:18.451Z,95621.38
2019-05-23T16:58:35.433Z,95617.90
2019-05-23T16:59:52.570Z,95623.89
2019-05-23T17:01:00.520Z,95623.07
2019-05-23T17:02:08.674Z,95622.41
2019-05-23T17:03:22.834Z,95622.69
2019-05-23T17:04:31.007Z,95616.19
2019-05-23T17:05:38.740Z,95616.25
2019-05-23T17:06:46.629Z,95617.98
2019-05-23T17:07:51.856Z,95623.89
2019-05-23T17:08:57.281Z,95622.30
2019-05-23T17:10:08.480Z,95617.68
2019-05-23T17:11:28.781Z,95625.55
2019-05-23T17:12:38.081Z,95623.50
2019-05-23T17:13:43.220Z,95619.59
2019-05-23T17:14:52.084Z,95616.12
2019-05-23T17:16:00.168Z,95619.98
2019-05-23T17:17:14.048Z,95617.98
2019-05-23T17:18:34.370Z,95621.23
2019-05-23T17:19:42.586Z,95623.16
2019-05-23T17:21:05.883Z,95614.17
2019-05-23T17:22:10.957Z,95626.13
2019-05-23T17:23:32.986Z,95624.66
2019-05-23T17:24:40.121Z,95624.70
2019-05-23T17:25:44.953Z,95623.59
2019-05-23T17:26:52.751Z,95631.90
2019-05-23T17:28:13.996Z,95629.11
2019-05-23T17:29:19.244Z,95617.86
2019-05-23T17:30:42.340Z,95624.41
2019-05-23T17:31:48.298Z,95622.49
2019-05-23T17:32:52.473Z,95624.48
2019-05-23T17:33:55.986Z,95621.94
2019-05-23T17:35:00.283Z,95617.89
2019-05-23T17:36:03.800Z,95621.91
2019-05-23T17:37:09.395Z,95629.56
2019-05-23T17:38:12.988Z,95622.17
2019-05-23T17:39:18.424Z,95622.44
2019-05-23T17:40:25.321Z,95627.07
2019-05-23T17:41:28.194Z,95622.17
2019-05-23T17:42:31.716Z,95626.81
2019-05-23T17:43:35.958Z,95629.43
2019-05-23T17:44:39.626Z,95626.27
2019-05-23T17:45:44.388Z,95626.39
2019-05-23T17:46:47.904Z,95625.70
2019-05-23T17:47:52.184Z,95620.08
2019-05-23T17:48:55.699Z,95626.27
2019-05-23T17:49:59.891Z,95629.38
2019-05-23T17:51:03.470Z,95628.25
2019-05-23T17:52:08.337Z,95631.34
2019-05-23T17:53:11.947Z,95631.61
2019-05-23T17:54:17.506Z,95630.04
2019-05-23T17:55:21.104Z,95619.01
2019-05-23T17:56:25.339Z,95619.33
2019-05-23T17:57:30.235Z,95624.08
2019-05-23T17:58:34.425Z,95620.83
2019-05-23T17:59:38.096Z,95620.66
2019-05-23T18:00:44.075Z,95620.63
2019-05-23T18:01:48.537Z,95619.01
2019-05-23T18:02:53.209Z,95616.02
2019-05-23T18:03:56.717Z,95619.00
2019-05-23T18:05:01.208Z,95622.33
2019-05-23T18:06:05.187Z,95624.55
2019-05-23T18:07:10.238Z,95623.66
2019-05-23T18:08:14.914Z,95621.69
2019-05-23T18:09:19.845Z,95624.11
2019-05-23T18:10:23.452Z,95622.13
2019-05-23T18:11:28.512Z,95618.89
2019-05-23T18:12:32.087Z,95623.00
2019-05-23T18:13:36.175Z,95620.34
2019-05-23T18:14:41.415Z,95618.44
2019-05-23T18:15:46.404Z,95625.67
2019-05-23T18:16:49.989Z,95619.77
2019-05-23T18:17:58.667Z,95624.73
2019-05-23T18:18:59.436Z,95620.02
2019-05-23T18:20:03.957Z,95626.81
2019-05-23T18:21:07.562Z,95617.86
2019-05-23T18:22:13.414Z,95627.44
2019-05-23T18:23:17.663Z,95621.90
2019-05-23T18:24:21.964Z,95622.62
2019-05-23T18:25:27.864Z,95629.02
2019-05-23T18:26:32.593Z,95628.95
2019-05-23T18:27:36.793Z,95627.73
2019-05-23T18:28:41.186Z,95632.30
2019-05-23T18:29:45.099Z,95626.76
2019-05-23T18:31:09.898Z,95628.91
2019-05-23T18:32:14.431Z,95631.58
2019-05-23T18:33:19.537Z,95631.91
2019-05-23T18:34:23.846Z,95634.74
2019-05-23T18:35:29.566Z,95631.65
2019-05-23T18:36:33.287Z,95634.74
2019-05-23T18:37:37.791Z,95629.92
2019-05-23T18:38:41.703Z,95623.20
2019-05-23T18:39:46.181Z,95628.09
2019-05-23T18:41:02.755Z,95622.38
2019-05-23T18:41:56.258Z,95633.13
2019-05-23T18:43:00.240Z,95628.48
2019-05-23T18:44:05.718Z,95627.15
2019-05-23T18:45:10.389Z,95633.30
2019-05-23T18:46:15.876Z,95629.31
2019-05-23T18:47:21.173Z,95635.28
2019-05-23T18:48:25.676Z,95634.70
2019-05-23T18:49:30.080Z,95628.16
2019-05-23T18:50:34.457Z,95634.33
2019-05-23T18:51:39.528Z,95638.31
2019-05-23T18:52:43.893Z,95633.58
2019-05-23T18:53:48.156Z,95638.89
2019-05-23T18:54:52.832Z,95630.34
2019-05-23T18:55:56.689Z,95636.38
2019-05-23T18:57:01.075Z,95645.29
2019-05-23T18:58:05.274Z,95643.63
2019-05-23T18:59:10.507Z,95639.56
2019-05-23T19:00:15.102Z,95639.56
2019-05-23T19:01:20.387Z,95646.61
2019-05-23T19:02:24.186Z,95641.86
2019-05-23T19:03:29.214Z,95642.64
2019-05-23T19:04:32.892Z,95643.40
2019-05-23T19:05:36.976Z,95639.41
2019-05-23T19:06:41.042Z,95645.23
2019-05-23T19:07:45.328Z,95648.61
2019-05-23T19:08:49.978Z,95647.96
2019-05-23T19:09:54.076Z,95645.12
2019-05-23T19:10:58.917Z,95641.78
2019-05-23T19:12:03.173Z,95648.03
2019-05-23T19:13:06.856Z,95646.05
2019-05-23T19:14:11.007Z,95645.05
2019-05-23T19:15:14.651Z,95644.44
2019-05-23T19:16:18.661Z,95645.72
2019-05-23T19:17:22.655Z,95649.52
2019-05-23T19:18:27.184Z,95647.11
2019-05-23T19:19:30.896Z,95652.44
2019-05-23T19:20:35.162Z,95654.11
2019-05-23T19:21:38.912Z,95660.48
2019-05-23T19:22:43.051Z,95652.11
2019-05-23T19:23:46.950Z,95655.77
2019-05-23T19:24:51.029Z,95651.59
2019-05-23T19:25:55.368Z,95653.35
2019-05-23T19:27:01.200Z,95657.34
2019-05-23T19:28:08.957Z,95655.16
2019-05-23T19:29:13.401Z,95656.25
2019-05-23T19:30:17.247Z,95657.00
2019-05-23T19:31:21.577Z,95661.41
2019-05-23T19:32:25.313Z,95665.55
2019-05-23T19:33:29.978Z,95656.16
2019-05-23T19:34:33.673Z,95663.80
2019-05-23T19:35:37.898Z,95662.23
2019-05-23T19:36:41.468Z,95663.98
2019-05-23T19:37:45.648Z,95665.05
2019-05-23T19:38:49.494Z,95661.06
2019-05-23T19:39:53.772Z,95660.91
2019-05-23T19:40:57.867Z,95661.97
2019-05-23T19:42:02.126Z,95661.91
2019-05-23T19:43:06.648Z,95660.82
2019-05-23T19:44:10.753Z,95660.55
2019-05-23T19:45:14.290Z,95663.39
2019-05-23T19:46:18.941Z,95664.05
2019-05-23T19:47:22.518Z,95661.64
2019-05-23T19:48:27.371Z,95660.38
2019-05-23T19:49:30.871Z,95656.90
2019-05-23T19:50:35.943Z,95660.55
2019-05-23T19:51:39.920Z,95656.98
2019-05-23T19:52:44.119Z,95658.31
2019-05-23T19:53:48.431Z,95654.06
2019-05-23T19:54:52.751Z,95654.33
2019-05-23T19:55:56.737Z,95660.55
2019-05-23T19:57:00.878Z,95657.89
2019-05-23T19:58:04.863Z,95654.58
2019-05-23T19:59:09.319Z,95658.56
2019-05-23T20:00:18.716Z,95654.48
2019-05-23T20:01:22.872Z,95657.37
2019-05-23T20:02:40.495Z,95656.05
2019-05-23T20:03:45.167Z,95654.39
2019-05-23T20:04:53.071Z,95654.63
2019-05-23T20:05:58.993Z,95655.38
2019-05-23T20:07:03.453Z,95654.72
2019-05-23T20:08:08.058Z,95654.72
2019-05-23T20:09:13.419Z,95656.37
2019-05-23T20:10:18.185Z,95655.72
2019-05-23T20:11:21.919Z,95651.79
2019-05-23T20:12:25.960Z,95660.08
2019-05-23T20:13:29.814Z,95664.91
2019-05-23T20:14:34.301Z,95662.64
2019-05-23T20:15:37.959Z,95666.23
2019-05-23T20:16:42.440Z,95665.20
2019-05-23T20:17:46.095Z,95667.61
2019-05-23T20:18:50.278Z,95661.97
2019-05-23T20:19:54.351Z,95665.86
2019-05-23T20:20:59.251Z,95661.52
2019-05-23T20:22:02.878Z,95670.00
2019-05-23T20:23:07.400Z,95665.19
2019-05-23T20:24:11.046Z,95666.17
2019-05-23T20:25:16.050Z,95663.50
2019-05-23T20:26:20.163Z,95667.30
2019-05-23T20:27:24.442Z,95667.14
2019-05-23T20:28:28.351Z,95664.47
2019-05-23T20:29:32.707Z,95671.37
2019-05-23T20:30:48.607Z,95662.48
2019-05-23T20:31:53.099Z,95663.96
2019-05-23T20:32:57.102Z,95666.41
2019-05-23T20:34:01.582Z,95662.52
2019-05-23T20:35:07.051Z,95662.41
2019-05-23T20:36:13.142Z,95670.33
2019-05-23T20:37:17.057Z,95667.34
2019-05-23T20:38:21.957Z,95665.18
2019-05-23T20:39:25.797Z,95671.42
2019-05-23T20:40:30.591Z,95670.48
2019-05-23T20:41:34.408Z,95665.52
2019-05-23T20:42:38.566Z,95661.05
2019-05-23T20:43:42.259Z,95659.84
2019-05-23T20:44:46.810Z,95660.83
2019-05-23T20:45:50.319Z,95634.44
2019-05-23T20:46:55.444Z,95661.18
2019-05-23T20:47:58.984Z,95654.93
2019-05-23T20:49:03.485Z,95654.63
2019-05-23T20:50:07.287Z,95653.64
2019-05-23T20:51:11.530Z,95650.95
2019-05-23T20:52:15.407Z,95651.52
2019-05-23T20:53:19.623Z,95654.47
2019-05-23T20:54:23.570Z,95649.63
2019-05-23T20:55:28.354Z,95653.14
2019-05-23T20:56:31.799Z,95649.97
2019-05-23T20:57:35.881Z,95651.30
2019-05-23T20:58:39.384Z,95650.49
2019-05-23T20:59:43.501Z,95656.36
2019-05-23T21:00:48.768Z,95652.73
2019-05-23T21:01:52.555Z,95655.23
2019-05-23T21:02:57.114Z,95651.48
2019-05-23T21:04:00.591Z,95655.80
2019-05-23T21:05:06.380Z,95653.12
2019-05-23T21:06:10.251Z,95650.86
2019-05-23T21:07:14.376Z,95649.72
2019-05-23T21:08:18.062Z,95655.41
2019-05-23T21:09:22.081Z,95655.24
2019-05-23T21:10:45.716Z,95654.84
2019-05-23T21:11:49.863Z,95653.52
2019-05-23T21:12:53.415Z,95653.11
2019-05-23T21:13:57.678Z,95653.45
2019-05-23T21:15:01.203Z,95656.10
2019-05-23T21:16:05.699Z,95654.71
2019-05-23T21:17:09.191Z,95661.08
2019-05-23T21:18:13.786Z,95655.02
2019-05-23T21:19:17.281Z,95660.89
2019-05-23T21:20:21.391Z,95657.83
2019-05-23T21:21:24.923Z,95657.70
2019-05-23T21:22:29.612Z,95654.27
2019-05-23T21:23:33.052Z,95659.38
2019-05-23T21:24:37.212Z,95654.14
2019-05-23T21:25:42.441Z,95654.47
2019-05-23T21:26:46.486Z,95649.52
2019-05-23T21:27:49.917Z,95643.79
2019-05-23T21:28:54.079Z,95653.72
2019-05-23T21:29:57.599Z,95651.07
2019-05-23T21:31:01.764Z,95654.47
2019-05-23T21:32:05.339Z,95645.74
2019-05-23T21:33:09.459Z,95652.90
2019-05-23T21:34:13.232Z,95653.25
2019-05-23T21:35:17.411Z,95657.16
2019-05-23T21:36:21.275Z,95654.57
2019-05-23T21:37:25.295Z,95655.04
2019-05-23T21:38:28.905Z,95654.47
2019-05-23T21:39:32.977Z,95652.80
2019-05-23T21:40:41.278Z,95650.38
2019-05-23T21:41:45.368Z,95652.48
2019-05-23T21:42:48.820Z,95645.17
2019-05-23T21:43:54.679Z,95650.13
2019-05-23T21:44:58.269Z,95653.12
2019-05-23T21:46:02.383Z,95655.95
2019-05-23T21:47:05.887Z,95656.52
2019-05-23T21:48:10.283Z,95655.08